createdAt,value
2019-02-27T00:00:43.949Z,68.80
2019-02-27T00:01:42.220Z,68.90
2019-02-27T00:02:42.184Z,65.90
2019-02-27T00:03:42.146Z,68.30
2019-02-27T00:04:42.128Z,69.80
2019-02-27T00:05:42.411Z,69.80
2019-02-27T00:06:42.109Z,67.70
2019-02-27T00:07:42.109Z,70.10
2019-02-27T00:08:42.081Z,69.80
2019-02-27T00:09:42.072Z,68.90
2019-02-27T00:10:42.065Z,67.50
2019-02-27T00:11:45.855Z,71.80
2019-02-27T00:12:42.049Z,74.60
2019-02-27T00:13:42.033Z,75.20
2019-02-27T00:14:42.055Z,79.00
2019-02-27T00:15:42.007Z,76.50
2019-02-27T00:16:44.627Z,81.20
2019-02-27T00:17:41.983Z,74.30
2019-02-27T00:18:41.977Z,74.90
2019-02-27T00:19:41.967Z,78.50
2019-02-27T00:20:41.965Z,77.20
2019-02-27T00:21:43.640Z,78.10
2019-02-27T00:22:41.993Z,78.40
2019-02-27T00:23:41.920Z,76.80
2019-02-27T00:24:41.932Z,78.40
2019-02-27T00:25:41.902Z,79.90
2019-02-27T00:26:42.471Z,74.80
2019-02-27T00:27:41.880Z,72.90
2019-02-27T00:28:41.908Z,73.60
2019-02-27T00:29:41.852Z,76.10
2019-02-27T00:30:41.843Z,74.40
2019-02-27T00:31:45.315Z,75.30
2019-02-27T00:32:41.820Z,79.00
2019-02-27T00:33:41.819Z,74.80
2019-02-27T00:34:41.818Z,73.20
2019-02-27T00:35:41.794Z,75.00
2019-02-27T00:36:44.796Z,80.90
2019-02-27T00:37:41.772Z,76.60
2019-02-27T00:38:41.788Z,75.10
2019-02-27T00:39:41.751Z,73.00
2019-02-27T00:40:41.739Z,76.20
2019-02-27T00:41:43.067Z,78.00
2019-02-27T00:42:41.723Z,75.10
2019-02-27T00:43:41.732Z,74.80
2019-02-27T00:44:41.689Z,72.20
2019-02-27T00:45:41.685Z,75.80
2019-02-27T00:46:43.985Z,75.20
2019-02-27T00:47:41.655Z,70.70
2019-02-27T00:48:41.687Z,70.40
2019-02-27T00:49:41.637Z,70.70
2019-02-27T00:50:41.625Z,76.00
2019-02-27T00:51:44.660Z,71.50
2019-02-27T00:52:41.606Z,71.30
2019-02-27T00:53:41.597Z,73.90
2019-02-27T00:54:41.626Z,74.30
2019-02-27T00:55:41.601Z,68.80
2019-02-27T00:56:44.815Z,76.00
2019-02-27T00:57:41.552Z,72.90
2019-02-27T00:58:41.541Z,74.70
2019-02-27T00:59:41.558Z,75.90
2019-02-27T01:00:41.529Z,71.50
2019-02-27T01:01:41.512Z,71.80
2019-02-27T01:02:41.495Z,72.40
2019-02-27T01:03:41.486Z,72.40
2019-02-27T01:04:41.558Z,73.80
2019-02-27T01:05:41.728Z,75.60
2019-02-27T01:06:41.453Z,71.40
2019-02-27T01:07:41.443Z,74.80
2019-02-27T01:08:41.427Z,72.60
2019-02-27T01:09:41.420Z,73.40
2019-02-27T01:10:45.041Z,78.50
2019-02-27T01:11:41.398Z,77.20
2019-02-27T01:12:41.383Z,75.30
2019-02-27T01:13:41.373Z,74.30
2019-02-27T01:14:41.362Z,71.20
2019-02-27T01:15:41.775Z,71.30
2019-02-27T01:16:41.344Z,72.70
2019-02-27T01:17:41.327Z,73.30
2019-02-27T01:18:41.316Z,78.00
2019-02-27T01:19:42.902Z,74.10
2019-02-27T01:20:45.664Z,69.00
2019-02-27T01:21:42.283Z,74.60
2019-02-27T01:22:41.275Z,73.00
2019-02-27T01:23:43.881Z,70.50
2019-02-27T01:24:41.255Z,73.40
2019-02-27T01:25:41.239Z,76.00
2019-02-27T01:26:41.245Z,75.50
2019-02-27T01:27:41.227Z,74.50
2019-02-27T01:28:44.674Z,76.80
2019-02-27T01:29:41.211Z,72.00
2019-02-27T01:30:41.196Z,79.40
2019-02-27T01:31:41.219Z,77.50
2019-02-27T01:32:41.188Z,70.60
2019-02-27T01:33:41.156Z,72.60
2019-02-27T01:34:44.181Z,71.50
2019-02-27T01:35:41.128Z,75.00
2019-02-27T01:36:41.142Z,75.50
2019-02-27T01:37:41.140Z,73.50
2019-02-27T01:38:41.102Z,70.30
2019-02-27T01:39:41.848Z,73.30
2019-02-27T01:40:41.089Z,75.20
2019-02-27T01:41:41.067Z,71.30
2019-02-27T01:42:41.076Z,73.20
2019-02-27T01:43:41.058Z,73.10
2019-02-27T01:44:41.088Z,71.40
2019-02-27T01:45:41.025Z,75.40
2019-02-27T01:46:41.020Z,74.20
2019-02-27T01:47:41.003Z,72.30
2019-02-27T01:48:43.699Z,75.00
2019-02-27T01:49:40.991Z,81.10
2019-02-27T01:50:40.967Z,76.00
2019-02-27T01:51:40.951Z,68.80
2019-02-27T01:52:40.944Z,72.30
2019-02-27T01:53:41.264Z,76.10
2019-02-27T01:54:40.924Z,76.90
2019-02-27T01:55:40.915Z,77.40
2019-02-27T01:56:40.903Z,77.80
2019-02-27T01:57:40.892Z,72.50
2019-02-27T01:58:43.421Z,73.20
2019-02-27T01:59:40.908Z,73.40
2019-02-27T02:00:40.858Z,71.60
2019-02-27T02:01:40.846Z,77.20
2019-02-27T02:02:40.841Z,70.50
2019-02-27T02:03:40.850Z,74.00
2019-02-27T02:04:40.814Z,77.50
2019-02-27T02:05:40.805Z,73.20
2019-02-27T02:06:40.792Z,72.30
2019-02-27T02:07:40.828Z,70.90
2019-02-27T02:08:40.811Z,70.70
2019-02-27T02:09:40.753Z,72.90
2019-02-27T02:10:40.743Z,70.70
2019-02-27T02:11:41.268Z,72.00
2019-02-27T02:12:41.614Z,68.90
2019-02-27T02:13:40.717Z,69.60
2019-02-27T02:14:40.704Z,74.00
2019-02-27T02:15:40.691Z,73.30
2019-02-27T02:16:40.701Z,72.90
2019-02-27T02:17:41.057Z,75.20
2019-02-27T02:18:40.653Z,76.80
2019-02-27T02:19:40.648Z,79.20
2019-02-27T02:20:40.635Z,77.40
2019-02-27T02:21:40.655Z,74.70
2019-02-27T02:22:41.276Z,69.40
2019-02-27T02:23:40.598Z,74.40
2019-02-27T02:24:40.591Z,72.90
2019-02-27T02:25:40.581Z,73.20
2019-02-27T02:26:40.565Z,73.20
2019-02-27T02:27:41.448Z,75.80
2019-02-27T02:28:40.543Z,71.90
2019-02-27T02:29:40.536Z,68.60
2019-02-27T02:30:40.519Z,72.00
2019-02-27T02:31:41.701Z,72.30
2019-02-27T02:32:40.537Z,67.40
2019-02-27T02:33:40.500Z,69.00
2019-02-27T02:34:41.036Z,68.80
2019-02-27T02:35:40.473Z,71.10
2019-02-27T02:36:40.459Z,70.50
2019-02-27T02:37:40.467Z,73.20
2019-02-27T02:38:40.436Z,65.90
2019-02-27T02:39:40.421Z,73.60
2019-02-27T02:40:40.414Z,72.30
2019-02-27T02:41:46.798Z,69.20
2019-02-27T02:42:41.385Z,70.00
2019-02-27T02:43:41.886Z,72.30
2019-02-27T02:44:40.375Z,73.50
2019-02-27T02:45:40.362Z,73.80
2019-02-27T02:46:44.826Z,73.40
2019-02-27T02:47:40.333Z,73.40
2019-02-27T02:48:40.346Z,77.50
2019-02-27T02:49:42.617Z,70.20
2019-02-27T02:50:40.307Z,74.40
2019-02-27T02:51:40.302Z,70.80
2019-02-27T02:52:41.575Z,71.00
2019-02-27T02:53:40.309Z,73.80
2019-02-27T02:54:40.349Z,71.50
2019-02-27T02:55:40.253Z,73.90
2019-02-27T02:56:40.247Z,71.30
2019-02-27T02:57:40.234Z,72.10
2019-02-27T02:58:40.218Z,77.30
2019-02-27T02:59:40.205Z,75.50
2019-02-27T03:00:40.227Z,76.30
2019-02-27T03:01:40.186Z,73.60
2019-02-27T03:02:40.175Z,73.50
2019-02-27T03:03:40.162Z,79.70
2019-02-27T03:04:40.155Z,74.10
2019-02-27T03:05:40.171Z,74.90
2019-02-27T03:06:40.126Z,75.70
2019-02-27T03:07:44.451Z,71.80
2019-02-27T03:08:41.121Z,74.30
2019-02-27T03:09:40.105Z,73.50
2019-02-27T03:10:42.790Z,73.00
2019-02-27T03:11:40.074Z,72.80
2019-02-27T03:12:40.096Z,70.40
2019-02-27T03:13:41.885Z,74.50
2019-02-27T03:14:40.048Z,73.00
2019-02-27T03:15:40.061Z,71.50
2019-02-27T03:16:41.398Z,72.40
2019-02-27T03:17:40.009Z,69.20
2019-02-27T03:18:39.997Z,73.30
2019-02-27T03:19:41.810Z,70.70
2019-02-27T03:20:40.012Z,71.40
2019-02-27T03:21:39.996Z,71.40
2019-02-27T03:22:41.639Z,73.10
2019-02-27T03:23:39.949Z,70.70
2019-02-27T03:24:39.935Z,66.90
2019-02-27T03:25:40.702Z,68.70
2019-02-27T03:26:39.918Z,73.30
2019-02-27T03:27:39.901Z,75.20
2019-02-27T03:28:41.106Z,72.10
2019-02-27T03:29:39.885Z,71.30
2019-02-27T03:30:39.878Z,70.50
2019-02-27T03:31:39.884Z,74.80
2019-02-27T03:32:43.184Z,71.90
2019-02-27T03:33:39.836Z,72.10
2019-02-27T03:34:48.032Z,76.90
2019-02-27T03:35:40.819Z,73.50
2019-02-27T03:36:39.814Z,73.10
2019-02-27T03:37:39.839Z,73.40
2019-02-27T03:38:39.828Z,72.30
2019-02-27T03:39:39.782Z,76.20
2019-02-27T03:40:39.759Z,72.90
2019-02-27T03:41:39.755Z,79.30
2019-02-27T03:42:39.770Z,75.00
2019-02-27T03:43:45.691Z,81.70
2019-02-27T03:44:40.749Z,74.50
2019-02-27T03:45:39.716Z,76.30
2019-02-27T03:46:41.793Z,74.10
2019-02-27T03:47:39.688Z,79.30
2019-02-27T03:48:39.672Z,75.90
2019-02-27T03:49:40.790Z,76.70
2019-02-27T03:50:39.659Z,80.40
2019-02-27T03:51:39.640Z,76.10
2019-02-27T03:52:39.636Z,77.00
2019-02-27T03:53:43.241Z,75.70
2019-02-27T03:54:40.640Z,72.40
2019-02-27T03:55:39.600Z,76.00
2019-02-27T03:56:43.528Z,76.70
2019-02-27T03:57:40.580Z,75.70
2019-02-27T03:58:39.570Z,74.60
2019-02-27T03:59:42.728Z,75.30
2019-02-27T04:00:42.018Z,69.50
2019-02-27T04:01:39.532Z,77.80
2019-02-27T04:02:42.035Z,76.30
2019-02-27T04:03:39.516Z,75.10
2019-02-27T04:04:39.515Z,79.30
2019-02-27T04:05:41.929Z,77.00
2019-02-27T04:06:40.484Z,72.90
2019-02-27T04:07:39.465Z,75.80
2019-02-27T04:08:43.549Z,76.00
2019-02-27T04:09:40.454Z,76.80
2019-02-27T04:10:39.462Z,79.40
2019-02-27T04:11:42.636Z,76.70
2019-02-27T04:12:39.431Z,82.80
2019-02-27T04:13:39.405Z,72.60
2019-02-27T04:14:41.802Z,78.30
2019-02-27T04:15:39.399Z,69.90
2019-02-27T04:16:39.381Z,73.70
2019-02-27T04:17:39.360Z,77.10
2019-02-27T04:18:39.348Z,75.70
2019-02-27T04:19:40.442Z,72.60
2019-02-27T04:20:39.326Z,72.80
2019-02-27T04:21:39.338Z,72.00
2019-02-27T04:22:39.302Z,71.30
2019-02-27T04:23:39.294Z,73.70
2019-02-27T04:24:39.285Z,74.10
2019-02-27T04:25:39.276Z,74.10
2019-02-27T04:26:41.996Z,75.90
2019-02-27T04:27:39.267Z,74.40
2019-02-27T04:28:39.243Z,73.70
2019-02-27T04:29:41.079Z,73.70
2019-02-27T04:30:39.226Z,71.50
2019-02-27T04:31:39.212Z,68.90
2019-02-27T04:32:39.228Z,69.60
2019-02-27T04:33:39.190Z,70.30
2019-02-27T04:34:39.174Z,73.00
2019-02-27T04:35:39.652Z,72.70
2019-02-27T04:36:39.185Z,72.50
2019-02-27T04:37:39.149Z,70.70
2019-02-27T04:38:39.134Z,74.00
2019-02-27T04:39:39.128Z,74.70
2019-02-27T04:40:39.107Z,70.40
2019-02-27T04:41:39.145Z,72.20
2019-02-27T04:42:39.087Z,69.50
2019-02-27T04:43:39.080Z,71.50
2019-02-27T04:44:39.621Z,68.80
2019-02-27T04:45:39.053Z,72.40
2019-02-27T04:46:39.088Z,73.40
2019-02-27T04:47:39.037Z,76.40
2019-02-27T04:48:39.026Z,77.90
2019-02-27T04:49:39.017Z,69.60
2019-02-27T04:50:39.004Z,69.00
2019-02-27T04:51:39.023Z,71.80
2019-02-27T04:52:38.977Z,75.50
2019-02-27T04:53:40.721Z,66.30
2019-02-27T04:54:41.441Z,68.30
2019-02-27T04:55:38.951Z,73.30
2019-02-27T04:56:38.940Z,73.50
2019-02-27T04:57:38.957Z,69.30
2019-02-27T04:58:42.809Z,72.40
2019-02-27T04:59:38.909Z,69.80
2019-02-27T05:00:38.898Z,73.00
2019-02-27T05:01:38.886Z,67.30
2019-02-27T05:02:38.869Z,73.80
2019-02-27T05:03:38.890Z,68.20
2019-02-27T05:04:38.858Z,64.40
2019-02-27T05:05:39.111Z,68.20
2019-02-27T05:06:38.826Z,65.70
2019-02-27T05:07:38.823Z,67.10
2019-02-27T05:08:38.810Z,67.40
2019-02-27T05:09:38.807Z,66.80
2019-02-27T05:10:40.608Z,64.70
2019-02-27T05:11:38.804Z,63.30
2019-02-27T05:12:38.768Z,70.10
2019-02-27T05:13:38.756Z,65.50
2019-02-27T05:14:38.739Z,64.10
2019-02-27T05:15:39.637Z,64.30
2019-02-27T05:16:38.763Z,66.00
2019-02-27T05:17:38.712Z,63.40
2019-02-27T05:18:38.703Z,63.90
2019-02-27T05:19:38.690Z,65.70
2019-02-27T05:20:38.680Z,59.90
2019-02-27T05:21:38.754Z,58.00
2019-02-27T05:22:38.657Z,57.50
2019-02-27T05:23:38.647Z,56.90
2019-02-27T05:24:40.832Z,61.20
2019-02-27T05:25:38.648Z,57.90
2019-02-27T05:26:38.616Z,54.80
2019-02-27T05:27:38.688Z,55.60
2019-02-27T05:28:38.589Z,54.60
2019-02-27T05:29:38.582Z,55.20
2019-02-27T05:30:38.574Z,57.20
2019-02-27T05:31:38.565Z,63.80
2019-02-27T05:32:38.576Z,57.60
2019-02-27T05:33:39.913Z,54.10
2019-02-27T05:34:38.530Z,59.10
2019-02-27T05:35:38.548Z,53.10
2019-02-27T05:36:38.505Z,55.20
2019-02-27T05:37:39.327Z,53.70
2019-02-27T05:38:40.986Z,55.80
2019-02-27T05:39:39.473Z,60.40
2019-02-27T05:40:38.598Z,56.10
2019-02-27T05:41:38.476Z,56.20
2019-02-27T05:42:38.972Z,53.40
2019-02-27T05:43:38.428Z,53.60
2019-02-27T05:44:38.425Z,59.10
2019-02-27T05:45:38.406Z,58.00
2019-02-27T05:46:39.069Z,53.20
2019-02-27T05:47:38.392Z,57.20
2019-02-27T05:48:38.398Z,57.20
2019-02-27T05:49:38.371Z,54.50
2019-02-27T05:50:38.352Z,55.80
2019-02-27T05:51:38.347Z,55.90
2019-02-27T05:52:38.395Z,56.60
2019-02-27T05:53:38.338Z,59.70
2019-02-27T05:54:38.312Z,62.60
2019-02-27T05:55:39.195Z,55.40
2019-02-27T05:56:38.288Z,50.20
2019-02-27T05:57:39.159Z,51.10
2019-02-27T05:58:38.290Z,48.40
2019-02-27T05:59:38.267Z,48.90
2019-02-27T06:00:38.245Z,52.90
2019-02-27T06:01:38.765Z,51.50
2019-02-27T06:02:38.221Z,49.30
2019-02-27T06:03:38.261Z,48.70
2019-02-27T06:04:38.202Z,48.90
2019-02-27T06:05:38.191Z,46.70
2019-02-27T06:06:38.180Z,50.30
2019-02-27T06:07:38.174Z,49.10
2019-02-27T06:08:38.228Z,46.30
2019-02-27T06:09:38.153Z,48.40
2019-02-27T06:10:38.163Z,46.70
2019-02-27T06:11:38.126Z,47.50
2019-02-27T06:12:40.761Z,49.70
2019-02-27T06:13:38.106Z,48.10
2019-02-27T06:14:38.089Z,45.70
2019-02-27T06:15:38.141Z,44.70
2019-02-27T06:16:40.692Z,49.10
2019-02-27T06:17:43.281Z,44.50
2019-02-27T06:18:39.045Z,42.80
2019-02-27T06:19:38.042Z,56.20
2019-02-27T06:20:38.980Z,39.60
2019-02-27T06:21:38.887Z,43.80
2019-02-27T06:22:38.008Z,45.60
2019-02-27T06:23:38.493Z,43.10
2019-02-27T06:24:37.997Z,45.20
2019-02-27T06:25:37.977Z,42.60
2019-02-27T06:26:37.992Z,45.40
2019-02-27T06:27:39.431Z,46.20
2019-02-27T06:28:37.938Z,45.30
2019-02-27T06:29:37.943Z,43.90
2019-02-27T06:30:37.927Z,43.70
2019-02-27T06:31:39.504Z,43.80
2019-02-27T06:32:37.896Z,44.50
2019-02-27T06:33:37.890Z,49.10
2019-02-27T06:34:37.878Z,44.10
2019-02-27T06:35:37.871Z,44.70
2019-02-27T06:36:41.829Z,43.10
2019-02-27T06:37:37.845Z,45.60
2019-02-27T06:38:37.829Z,43.80
2019-02-27T06:39:37.824Z,42.40
2019-02-27T06:40:42.105Z,43.90
2019-02-27T06:41:39.948Z,42.00
2019-02-27T06:42:37.790Z,41.00
2019-02-27T06:43:37.786Z,44.50
2019-02-27T06:44:39.265Z,41.70
2019-02-27T06:45:37.754Z,43.00
2019-02-27T06:46:37.748Z,41.20
2019-02-27T06:47:38.680Z,46.00
2019-02-27T06:48:37.721Z,44.90
2019-02-27T06:49:37.719Z,42.20
2019-02-27T06:50:37.700Z,42.20
2019-02-27T06:51:37.721Z,44.00
2019-02-27T06:52:40.160Z,40.90
2019-02-27T06:53:37.673Z,45.70
2019-02-27T06:54:37.862Z,39.40
2019-02-27T06:55:37.656Z,42.20
2019-02-27T06:56:37.640Z,39.90
2019-02-27T06:57:40.914Z,39.60
2019-02-27T06:58:37.647Z,44.50
2019-02-27T06:59:37.608Z,41.90
2019-02-27T07:00:37.598Z,40.90
2019-02-27T07:01:37.582Z,42.60
2019-02-27T07:02:37.577Z,42.00
2019-02-27T07:03:37.612Z,42.50
2019-02-27T07:04:39.501Z,40.40
2019-02-27T07:05:37.545Z,42.00
2019-02-27T07:06:37.533Z,40.50
2019-02-27T07:07:37.518Z,40.00
2019-02-27T07:08:38.155Z,41.60
2019-02-27T07:09:37.530Z,42.00
2019-02-27T07:10:37.491Z,38.10
2019-02-27T07:11:37.478Z,37.70
2019-02-27T07:12:37.463Z,40.60
2019-02-27T07:13:37.458Z,38.90
2019-02-27T07:14:39.111Z,35.50
2019-02-27T07:15:37.445Z,39.70
2019-02-27T07:16:37.431Z,41.70
2019-02-27T07:17:37.407Z,39.50
2019-02-27T07:18:41.546Z,39.90
2019-02-27T07:19:37.386Z,40.70
2019-02-27T07:20:37.390Z,42.80
2019-02-27T07:21:37.392Z,38.50
2019-02-27T07:22:37.362Z,38.60
2019-02-27T07:23:37.344Z,38.90
2019-02-27T07:24:37.337Z,35.10
2019-02-27T07:25:41.957Z,40.50
2019-02-27T07:26:38.308Z,34.30
2019-02-27T07:27:37.304Z,40.50
2019-02-27T07:28:37.292Z,33.90
2019-02-27T07:29:37.283Z,40.80
2019-02-27T07:30:39.798Z,35.40
2019-02-27T07:31:38.297Z,40.90
2019-02-27T07:32:37.246Z,36.70
2019-02-27T07:33:37.994Z,40.70
2019-02-27T07:34:37.225Z,39.80
2019-02-27T07:35:37.215Z,39.50
2019-02-27T07:36:38.571Z,37.40
2019-02-27T07:37:37.206Z,36.80
2019-02-27T07:38:37.182Z,40.30
2019-02-27T07:39:37.171Z,38.40
2019-02-27T07:40:37.164Z,42.10
2019-02-27T07:41:37.161Z,40.70
2019-02-27T07:42:37.143Z,35.40
2019-02-27T07:43:37.156Z,39.00
2019-02-27T07:44:37.118Z,39.30
2019-02-27T07:45:37.121Z,37.90
2019-02-27T07:46:37.099Z,36.50
2019-02-27T07:47:37.083Z,41.20
2019-02-27T07:48:37.075Z,36.60
2019-02-27T07:49:37.068Z,37.30
2019-02-27T07:50:37.062Z,40.50
2019-02-27T07:51:37.046Z,37.00
2019-02-27T07:52:37.038Z,41.50
2019-02-27T07:53:37.030Z,42.30
2019-02-27T07:54:37.010Z,37.10
2019-02-27T07:55:37.001Z,36.50
2019-02-27T07:56:36.992Z,36.60
2019-02-27T07:57:36.976Z,37.50
2019-02-27T07:58:36.972Z,37.60
2019-02-27T07:59:38.123Z,33.50
2019-02-27T08:00:36.946Z,37.70
2019-02-27T08:01:43.436Z,35.60
2019-02-27T08:02:37.925Z,34.40
2019-02-27T08:03:36.905Z,38.10
2019-02-27T08:04:36.899Z,34.00
2019-02-27T08:05:36.883Z,35.60
2019-02-27T08:06:37.733Z,33.70
2019-02-27T08:07:36.906Z,37.50
2019-02-27T08:08:36.885Z,33.30
2019-02-27T08:09:36.844Z,36.40
2019-02-27T08:10:37.493Z,33.70
2019-02-27T08:11:36.851Z,31.00
2019-02-27T08:12:36.812Z,31.20
2019-02-27T08:13:36.801Z,32.50
2019-02-27T08:14:37.762Z,33.40
2019-02-27T08:15:36.773Z,32.90
2019-02-27T08:16:37.062Z,31.10
2019-02-27T08:17:36.752Z,33.20
2019-02-27T08:18:38.174Z,32.80
2019-02-27T08:19:36.897Z,33.50
2019-02-27T08:20:36.734Z,32.30
2019-02-27T08:21:36.718Z,30.90
2019-02-27T08:22:36.706Z,30.90
2019-02-27T08:23:36.691Z,33.60
2019-02-27T08:24:36.710Z,32.90
2019-02-27T08:25:36.702Z,32.10
2019-02-27T08:26:37.056Z,31.80
2019-02-27T08:27:36.647Z,34.60
2019-02-27T08:28:36.640Z,34.70
2019-02-27T08:29:36.628Z,31.90
2019-02-27T08:30:36.618Z,32.00
2019-02-27T08:31:36.608Z,33.20
2019-02-27T08:32:36.590Z,32.60
2019-02-27T08:33:36.582Z,33.30
2019-02-27T08:34:36.570Z,30.10
2019-02-27T08:35:36.593Z,32.00
2019-02-27T08:36:36.598Z,33.10
2019-02-27T08:37:36.538Z,34.20
2019-02-27T08:38:36.530Z,30.40
2019-02-27T08:39:36.514Z,32.20
2019-02-27T08:40:36.500Z,31.60
2019-02-27T08:41:36.489Z,33.80
2019-02-27T08:42:39.640Z,33.40
2019-02-27T08:43:36.473Z,29.50
2019-02-27T08:44:36.463Z,31.20
2019-02-27T08:45:36.450Z,32.50
2019-02-27T08:46:36.998Z,30.80
2019-02-27T08:47:36.440Z,31.30
2019-02-27T08:48:36.420Z,33.60
2019-02-27T08:49:36.413Z,31.90
2019-02-27T08:50:36.399Z,31.90
2019-02-27T08:51:36.387Z,34.50
2019-02-27T08:52:36.416Z,29.50
2019-02-27T08:53:36.360Z,30.80
2019-02-27T08:54:36.348Z,32.10
2019-02-27T08:55:39.038Z,32.20
2019-02-27T08:56:36.330Z,34.70
2019-02-27T08:57:36.321Z,32.90
2019-02-27T08:58:36.319Z,32.30
2019-02-27T08:59:36.993Z,32.10
2019-02-27T09:00:36.287Z,28.70
2019-02-27T09:01:37.761Z,30.60
2019-02-27T09:02:36.259Z,31.40
2019-02-27T09:03:37.004Z,31.00
2019-02-27T09:04:36.243Z,32.50
2019-02-27T09:05:36.235Z,31.80
2019-02-27T09:06:36.215Z,31.00
2019-02-27T09:07:36.451Z,32.90
2019-02-27T09:08:36.206Z,35.80
2019-02-27T09:09:36.325Z,30.60
2019-02-27T09:10:36.188Z,33.80
2019-02-27T09:11:39.658Z,33.70
2019-02-27T09:12:36.156Z,32.60
2019-02-27T09:13:36.138Z,30.70
2019-02-27T09:14:36.138Z,34.50
2019-02-27T09:15:36.158Z,34.30
2019-02-27T09:16:36.111Z,34.70
2019-02-27T09:17:36.105Z,34.60
2019-02-27T09:18:36.750Z,32.60
2019-02-27T09:19:36.080Z,32.70
2019-02-27T09:20:36.064Z,33.60
2019-02-27T09:21:36.097Z,33.30
2019-02-27T09:22:36.785Z,31.70
2019-02-27T09:23:36.029Z,29.80
2019-02-27T09:24:36.024Z,30.50
2019-02-27T09:25:36.009Z,35.50
2019-02-27T09:26:36.786Z,32.60
2019-02-27T09:27:36.032Z,32.80
2019-02-27T09:28:35.973Z,35.50
2019-02-27T09:29:35.968Z,33.20
2019-02-27T09:30:35.956Z,34.50
2019-02-27T09:31:37.691Z,33.20
2019-02-27T09:32:35.942Z,32.90
2019-02-27T09:33:38.839Z,33.20
2019-02-27T09:34:35.909Z,30.70
2019-02-27T09:35:38.608Z,31.90
2019-02-27T09:36:35.895Z,34.20
2019-02-27T09:37:35.914Z,33.10
2019-02-27T09:38:35.870Z,32.10
2019-02-27T09:39:35.854Z,31.00
2019-02-27T09:40:38.636Z,30.40
2019-02-27T09:41:35.838Z,29.90
2019-02-27T09:42:35.860Z,29.10
2019-02-27T09:43:35.932Z,33.10
2019-02-27T09:44:36.598Z,30.30
2019-02-27T09:45:35.801Z,29.40
2019-02-27T09:46:35.836Z,31.20
2019-02-27T09:47:35.767Z,30.40
2019-02-27T09:48:35.767Z,32.30
2019-02-27T09:49:37.996Z,34.50
2019-02-27T09:50:35.733Z,28.50
2019-02-27T09:51:35.730Z,29.00
2019-02-27T09:52:35.717Z,35.30
2019-02-27T09:53:36.813Z,30.30
2019-02-27T09:54:35.693Z,27.70
2019-02-27T09:55:35.679Z,27.00
2019-02-27T09:56:35.679Z,27.20
2019-02-27T09:57:36.722Z,29.00
2019-02-27T09:58:36.070Z,29.20
2019-02-27T09:59:35.634Z,29.60
2019-02-27T10:00:35.623Z,26.80
2019-02-27T10:01:35.618Z,27.10
2019-02-27T10:02:35.602Z,30.00
2019-02-27T10:03:35.596Z,27.80
2019-02-27T10:04:35.617Z,28.50
2019-02-27T10:05:36.681Z,30.20
2019-02-27T10:06:35.563Z,27.40
2019-02-27T10:07:35.547Z,26.10
2019-02-27T10:08:35.541Z,28.90
2019-02-27T10:09:35.524Z,30.30
2019-02-27T10:10:35.525Z,28.40
2019-02-27T10:11:35.518Z,26.60
2019-02-27T10:12:35.491Z,26.40
2019-02-27T10:13:37.948Z,26.00
2019-02-27T10:14:35.474Z,26.20
2019-02-27T10:15:35.479Z,25.80
2019-02-27T10:16:35.453Z,27.10
2019-02-27T10:17:35.437Z,27.50
2019-02-27T10:18:35.440Z,28.20
2019-02-27T10:19:35.415Z,29.10
2019-02-27T10:20:37.304Z,24.80
2019-02-27T10:21:35.409Z,26.40
2019-02-27T10:22:35.390Z,29.20
2019-02-27T10:23:35.372Z,24.30
2019-02-27T10:24:36.914Z,30.00
2019-02-27T10:25:35.364Z,26.30
2019-02-27T10:26:35.339Z,25.80
2019-02-27T10:27:35.331Z,28.70
2019-02-27T10:28:38.885Z,26.00
2019-02-27T10:29:35.313Z,25.60
2019-02-27T10:30:35.306Z,28.00
2019-02-27T10:31:35.295Z,31.10
2019-02-27T10:32:36.707Z,26.00
2019-02-27T10:33:35.275Z,25.10
2019-02-27T10:34:36.279Z,26.00
2019-02-27T10:35:35.251Z,24.40
2019-02-27T10:36:38.241Z,25.50
2019-02-27T10:37:35.326Z,27.20
2019-02-27T10:38:40.276Z,25.40
2019-02-27T10:39:37.159Z,24.20
2019-02-27T10:40:35.195Z,28.10
2019-02-27T10:41:35.183Z,24.30
2019-02-27T10:42:35.171Z,24.80
2019-02-27T10:43:35.179Z,28.20
2019-02-27T10:44:35.170Z,25.90
2019-02-27T10:45:35.173Z,24.40
2019-02-27T10:46:35.134Z,26.10
2019-02-27T10:47:36.518Z,25.20
2019-02-27T10:48:36.784Z,24.20
2019-02-27T10:49:35.131Z,22.50
2019-02-27T10:50:36.110Z,23.30
2019-02-27T10:51:35.067Z,25.10
2019-02-27T10:52:35.056Z,25.60
2019-02-27T10:53:35.046Z,24.80
2019-02-27T10:54:37.084Z,24.10
2019-02-27T10:55:35.044Z,24.20
2019-02-27T10:56:35.078Z,22.80
2019-02-27T10:57:38.382Z,23.00
2019-02-27T10:58:35.000Z,22.90
2019-02-27T10:59:34.981Z,24.90
2019-02-27T11:00:34.991Z,23.80
2019-02-27T11:01:36.344Z,20.90
2019-02-27T11:02:34.956Z,21.20
2019-02-27T11:03:34.948Z,24.10
2019-02-27T11:04:36.311Z,21.10
2019-02-27T11:05:34.931Z,19.60
2019-02-27T11:06:37.750Z,22.40
2019-02-27T11:07:34.899Z,25.40
2019-02-27T11:08:34.891Z,22.50
2019-02-27T11:09:34.878Z,21.60
2019-02-27T11:10:34.944Z,25.40
2019-02-27T11:11:34.859Z,24.30
2019-02-27T11:12:34.840Z,21.30
2019-02-27T11:13:34.835Z,22.70
2019-02-27T11:14:34.822Z,24.50
2019-02-27T11:15:34.815Z,22.80
2019-02-27T11:16:34.809Z,22.80
2019-02-27T11:17:34.791Z,23.80
2019-02-27T11:18:34.777Z,22.90
2019-02-27T11:19:35.034Z,23.80
2019-02-27T11:20:34.792Z,20.10
2019-02-27T11:21:34.757Z,20.60
2019-02-27T11:22:34.735Z,21.70
2019-02-27T11:23:34.742Z,20.50
2019-02-27T11:24:34.760Z,23.20
2019-02-27T11:25:34.708Z,26.80
2019-02-27T11:26:34.692Z,20.70
2019-02-27T11:27:36.366Z,21.00
2019-02-27T11:28:34.729Z,19.10
2019-02-27T11:29:34.658Z,21.20
2019-02-27T11:30:36.841Z,21.20
2019-02-27T11:31:34.633Z,21.60
2019-02-27T11:32:34.629Z,25.20
2019-02-27T11:33:34.609Z,21.70
2019-02-27T11:34:34.617Z,21.30
2019-02-27T11:35:34.588Z,21.80
2019-02-27T11:36:35.013Z,22.80
2019-02-27T11:37:34.570Z,21.50
2019-02-27T11:38:34.563Z,21.00
2019-02-27T11:39:34.583Z,23.90
2019-02-27T11:40:34.543Z,20.20
2019-02-27T11:41:34.527Z,21.40
2019-02-27T11:42:34.517Z,20.50
2019-02-27T11:43:34.502Z,21.10
2019-02-27T11:44:34.532Z,20.10
2019-02-27T11:45:34.495Z,22.90
2019-02-27T11:46:35.121Z,22.80
2019-02-27T11:47:34.471Z,24.80
2019-02-27T11:48:34.448Z,19.70
2019-02-27T11:49:38.434Z,25.00
2019-02-27T11:50:34.430Z,26.50
2019-02-27T11:51:34.450Z,23.40
2019-02-27T11:52:34.420Z,24.40
2019-02-27T11:53:36.009Z,26.00
2019-02-27T11:54:34.393Z,25.70
2019-02-27T11:55:34.411Z,28.40
2019-02-27T11:56:34.360Z,21.60
2019-02-27T11:57:34.349Z,19.80
2019-02-27T11:58:35.252Z,26.80
2019-02-27T11:59:34.332Z,21.70
2019-02-27T12:00:34.318Z,21.20
2019-02-27T12:01:34.320Z,18.60
2019-02-27T12:02:37.851Z,19.20
2019-02-27T12:03:34.335Z,23.60
2019-02-27T12:04:34.289Z,21.50
2019-02-27T12:05:34.588Z,19.80
2019-02-27T12:06:34.256Z,19.20
2019-02-27T12:07:34.267Z,19.40
2019-02-27T12:08:34.228Z,21.80
2019-02-27T12:09:35.173Z,19.80
2019-02-27T12:10:34.208Z,17.50
2019-02-27T12:11:34.199Z,20.20
2019-02-27T12:12:34.187Z,17.40
2019-02-27T12:13:34.920Z,16.80
2019-02-27T12:14:34.173Z,19.50
2019-02-27T12:15:34.204Z,18.00
2019-02-27T12:16:34.154Z,16.90
2019-02-27T12:17:34.172Z,19.40
2019-02-27T12:18:34.549Z,17.90
2019-02-27T12:19:34.206Z,18.70
2019-02-27T12:20:34.101Z,20.30
2019-02-27T12:21:34.086Z,18.20
2019-02-27T12:22:35.273Z,19.00
2019-02-27T12:23:34.187Z,17.30
2019-02-27T12:24:34.058Z,17.00
2019-02-27T12:25:34.051Z,16.20
2019-02-27T12:26:34.440Z,18.40
2019-02-27T12:27:48.629Z,19.60
2019-02-27T12:28:35.009Z,18.70
2019-02-27T12:29:33.999Z,18.30
2019-02-27T12:30:37.199Z,24.10
2019-02-27T12:31:33.978Z,19.20
2019-02-27T12:32:33.968Z,20.40
2019-02-27T12:33:34.494Z,24.30
2019-02-27T12:34:36.919Z,19.10
2019-02-27T12:35:33.940Z,21.70
2019-02-27T12:36:33.971Z,21.40
2019-02-27T12:37:34.740Z,19.90
2019-02-27T12:38:33.906Z,21.80
2019-02-27T12:39:33.903Z,22.50
2019-02-27T12:40:33.883Z,20.00
2019-02-27T12:41:33.870Z,20.70
2019-02-27T12:42:37.385Z,19.40
2019-02-27T12:43:33.846Z,19.00
2019-02-27T12:44:34.539Z,18.80
2019-02-27T12:45:33.868Z,21.10
2019-02-27T12:46:34.215Z,21.10
2019-02-27T12:47:33.809Z,20.20
2019-02-27T12:48:33.831Z,17.30
2019-02-27T12:49:33.788Z,18.60
2019-02-27T12:50:33.778Z,17.20
2019-02-27T12:51:35.248Z,21.00
2019-02-27T12:52:33.750Z,18.40